createdAt,value
2022-10-18T00:02:26.251Z,41.45
2022-10-18T00:04:52.690Z,46.55
2022-10-18T00:07:19.132Z,42.08
2022-10-18T00:09:45.534Z,40.72
2022-10-18T00:12:11.975Z,40.15
2022-10-18T00:14:38.454Z,39.45
2022-10-18T00:17:04.916Z,40.75
2022-10-18T00:19:31.347Z,41.53
2022-10-18T00:21:57.780Z,43.83
2022-10-18T00:24:24.206Z,44.30
2022-10-18T00:26:50.594Z,45.92
2022-10-18T00:29:17.050Z,42.45
2022-10-18T00:31:44.593Z,46.72
2022-10-18T00:34:14.278Z,46.08
2022-10-18T00:36:41.746Z,46.55
2022-10-18T00:39:12.041Z,45.95
2022-10-18T00:41:38.546Z,44.77
2022-10-18T00:44:12.675Z,45.20
2022-10-18T00:46:45.210Z,43.53
2022-10-18T00:49:16.160Z,43.17
2022-10-18T00:51:46.713Z,45.30
2022-10-18T00:54:15.424Z,50.80
2022-10-18T00:56:44.675Z,51.58
2022-10-18T00:59:13.721Z,46.67
2022-10-18T01:01:40.237Z,45.17
2022-10-18T01:04:06.678Z,44.88
2022-10-18T01:06:38.459Z,43.22
2022-10-18T01:09:09.096Z,47.30
2022-10-18T01:11:58.783Z,44.95
2022-10-18T01:14:45.932Z,45.22
2022-10-18T01:17:27.581Z,45.83
2022-10-18T01:20:06.436Z,40.67
2022-10-18T01:22:47.874Z,39.33
2022-10-18T01:25:36.066Z,38.15
2022-10-18T01:28:17.352Z,36.67
2022-10-18T01:33:32.576Z,36.65
2022-10-18T01:36:02.565Z,40.20
2022-10-18T01:38:32.340Z,52.00
2022-10-18T01:41:01.445Z,57.05
2022-10-18T01:43:29.974Z,49.50
2022-10-18T01:45:57.686Z,48.60
2022-10-18T01:48:25.436Z,46.05
2022-10-18T01:50:54.032Z,42.50
2022-10-18T01:53:32.440Z,42.78
2022-10-18T01:56:26.194Z,46.45
2022-10-18T01:59:07.436Z,42.60
2022-10-18T02:04:20.553Z,38.25
2022-10-18T02:06:53.720Z,32.05
2022-10-18T02:09:38.476Z,28.92
2022-10-18T02:12:10.441Z,30.20
2022-10-18T02:14:37.225Z,27.38
2022-10-18T02:17:07.970Z,25.55
2022-10-18T02:19:41.897Z,23.92
2022-10-18T02:22:10.657Z,25.20
2022-10-18T02:24:44.793Z,27.10
2022-10-18T02:27:11.445Z,27.65
2022-10-18T02:29:39.421Z,28.10
2022-10-18T02:32:15.765Z,28.08
2022-10-18T02:34:47.919Z,25.60
2022-10-18T02:37:16.261Z,26.98
2022-10-18T02:39:47.120Z,26.77
2022-10-18T02:42:14.155Z,25.05
2022-10-18T02:44:40.655Z,27.05
2022-10-18T02:47:09.395Z,26.23
2022-10-18T02:49:35.844Z,25.58
2022-10-18T02:52:02.379Z,24.02
2022-10-18T02:54:28.811Z,25.08
2022-10-18T02:56:55.514Z,23.42
2022-10-18T02:59:21.969Z,26.55
2022-10-18T03:01:48.421Z,24.00
2022-10-18T03:04:14.965Z,28.67
2022-10-18T03:06:41.546Z,33.70
2022-10-18T03:09:08.004Z,28.20
2022-10-18T03:11:34.458Z,29.98
2022-10-18T03:14:00.862Z,27.52
2022-10-18T03:16:27.457Z,30.05
2022-10-18T03:18:53.943Z,34.75
2022-10-18T03:21:20.363Z,29.35
2022-10-18T03:23:46.821Z,28.75
2022-10-18T03:26:13.384Z,27.65
2022-10-18T03:28:39.824Z,27.92
2022-10-18T03:31:06.337Z,32.15
2022-10-18T03:33:33.336Z,32.50
2022-10-18T03:36:00.086Z,35.92
2022-10-18T03:38:26.960Z,36.55
2022-10-18T03:40:53.366Z,35.60
2022-10-18T03:43:19.815Z,38.97
2022-10-18T03:45:46.212Z,36.92
2022-10-18T03:48:12.629Z,32.67
2022-10-18T03:50:39.068Z,29.95
2022-10-18T03:53:05.510Z,31.00
2022-10-18T03:55:32.047Z,34.25
2022-10-18T03:57:58.581Z,32.70
2022-10-18T04:00:25.527Z,34.38
2022-10-18T04:02:54.971Z,34.22
2022-10-18T04:05:24.133Z,32.97
2022-10-18T04:07:50.788Z,38.45
2022-10-18T04:10:18.582Z,33.40
2022-10-18T04:12:45.007Z,35.67
2022-10-18T04:15:11.774Z,35.55
2022-10-18T04:17:38.183Z,35.25
2022-10-18T04:20:05.165Z,37.28
2022-10-18T04:22:31.596Z,30.65
2022-10-18T04:24:58.098Z,36.85
2022-10-18T04:27:24.635Z,30.98
2022-10-18T04:29:51.115Z,31.75
2022-10-18T04:32:17.594Z,30.50
2022-10-18T04:37:15.356Z,34.45
2022-10-18T04:39:49.787Z,32.05
2022-10-18T04:42:19.199Z,38.08
2022-10-18T04:44:45.743Z,36.08
2022-10-18T04:47:12.212Z,34.40
2022-10-18T04:49:38.728Z,35.17
2022-10-18T04:52:05.290Z,36.97
2022-10-18T04:54:31.748Z,36.58
2022-10-18T04:56:58.309Z,37.75
2022-10-18T04:59:24.803Z,38.35
2022-10-18T05:01:51.416Z,41.78
2022-10-18T05:04:17.885Z,34.75
2022-10-18T05:06:44.282Z,35.85
2022-10-18T05:09:10.745Z,34.90
2022-10-18T05:11:37.174Z,38.20
2022-10-18T05:14:03.714Z,39.50
2022-10-18T05:16:31.910Z,40.03
2022-10-18T05:18:58.460Z,37.35
2022-10-18T05:21:24.946Z,37.03
2022-10-18T05:23:56.289Z,34.80
2022-10-18T05:26:22.991Z,36.30
2022-10-18T05:28:50.660Z,39.55
2022-10-18T05:31:17.496Z,35.17
2022-10-18T05:33:43.935Z,37.78
2022-10-18T05:36:11.189Z,38.13
2022-10-18T05:38:45.410Z,39.88
2022-10-18T05:41:12.553Z,38.60
2022-10-18T05:43:39.880Z,39.85
2022-10-18T05:46:13.603Z,39.78
2022-10-18T05:48:41.961Z,40.65
2022-10-18T05:51:08.398Z,42.35
2022-10-18T05:53:37.155Z,41.08
2022-10-18T05:56:05.167Z,42.83
2022-10-18T05:58:31.612Z,45.00
2022-10-18T06:01:00.392Z,41.28
2022-10-18T06:03:27.726Z,41.47
2022-10-18T06:06:03.110Z,41.38
2022-10-18T06:08:29.587Z,40.28
2022-10-18T06:10:56.644Z,41.00
2022-10-18T06:13:23.254Z,38.78
2022-10-18T06:15:50.079Z,39.20
2022-10-18T06:18:16.533Z,37.85
2022-10-18T06:20:42.932Z,39.47
2022-10-18T06:23:09.432Z,40.63
2022-10-18T06:25:35.838Z,41.83
2022-10-18T06:28:05.988Z,58.67
2022-10-18T06:30:34.867Z,66.47
2022-10-18T06:33:01.342Z,68.60
2022-10-18T06:35:27.844Z,60.35
2022-10-18T06:37:54.393Z,55.42
2022-10-18T06:40:20.849Z,49.63
2022-10-18T06:42:59.921Z,46.50
2022-10-18T06:45:27.206Z,50.53
2022-10-18T06:47:53.649Z,46.03
2022-10-18T06:50:20.063Z,47.60
2022-10-18T06:52:48.799Z,49.50
2022-10-18T06:55:15.289Z,48.83
2022-10-18T06:57:41.766Z,48.78
2022-10-18T07:00:09.033Z,44.72
2022-10-18T07:02:35.506Z,49.45
2022-10-18T07:05:02.137Z,49.95
2022-10-18T07:07:31.486Z,52.42
2022-10-18T07:09:58.309Z,51.83
2022-10-18T07:12:24.843Z,52.92
2022-10-18T07:14:51.326Z,52.60
2022-10-18T07:17:17.751Z,51.92
2022-10-18T07:19:44.162Z,50.85
2022-10-18T07:22:10.580Z,54.53
2022-10-18T07:24:37.033Z,56.50
2022-10-18T07:27:03.644Z,56.50
2022-10-18T07:29:30.146Z,57.50
2022-10-18T07:31:56.590Z,56.17
2022-10-18T07:34:23.210Z,56.25
2022-10-18T07:36:49.635Z,60.22
2022-10-18T07:39:16.177Z,58.72
2022-10-18T07:41:42.627Z,58.85
2022-10-18T07:44:09.165Z,64.47
2022-10-18T07:46:35.801Z,45.45
2022-10-18T07:49:02.249Z,54.03
2022-10-18T07:51:30.889Z,56.20
2022-10-18T07:53:57.327Z,56.95
2022-10-18T07:56:23.801Z,56.88
2022-10-18T07:58:52.542Z,61.33
2022-10-18T08:01:21.184Z,56.47
2022-10-18T08:03:47.796Z,57.92
2022-10-18T08:06:17.924Z,60.55
2022-10-18T08:08:45.152Z,59.63
2022-10-18T08:11:21.958Z,57.63
2022-10-18T08:13:49.105Z,59.40
2022-10-18T08:16:21.698Z,59.42
2022-10-18T08:18:48.363Z,56.13
2022-10-18T08:21:16.471Z,58.30
2022-10-18T08:23:42.909Z,57.75
2022-10-18T08:26:12.686Z,57.00
2022-10-18T08:28:39.748Z,59.35
2022-10-18T08:31:08.947Z,52.63
2022-10-18T08:33:36.222Z,56.47
2022-10-18T08:36:07.606Z,49.50
2022-10-18T08:38:38.677Z,54.58
2022-10-18T08:41:23.802Z,51.53
2022-10-18T08:44:15.866Z,53.85
2022-10-18T08:46:46.241Z,54.03
2022-10-18T08:49:26.758Z,51.50
2022-10-18T08:51:53.965Z,58.00
2022-10-18T08:54:48.311Z,56.05
2022-10-18T08:57:18.123Z,60.28
2022-10-18T08:59:44.679Z,54.70
2022-10-18T09:02:29.918Z,59.35
2022-10-18T09:05:04.279Z,53.33
2022-10-18T09:07:45.671Z,52.97
2022-10-18T09:10:38.144Z,54.20
2022-10-18T09:13:30.991Z,52.72
2022-10-18T09:16:30.382Z,51.20
2022-10-18T09:19:36.318Z,51.63
2022-10-18T09:22:22.141Z,52.35
2022-10-18T09:25:20.548Z,53.55
2022-10-18T09:28:04.906Z,50.15
2022-10-18T09:30:52.999Z,57.30
2022-10-18T09:33:30.038Z,48.50
2022-10-18T09:36:10.170Z,51.75
2022-10-18T09:39:00.434Z,49.38
2022-10-18T09:42:00.166Z,47.10
2022-10-18T09:44:51.774Z,46.83
2022-10-18T09:47:26.359Z,39.10
2022-10-18T09:49:59.039Z,41.03
2022-10-18T09:52:34.938Z,46.20
2022-10-18T09:55:09.383Z,46.10
2022-10-18T09:57:42.781Z,48.00
2022-10-18T10:00:19.133Z,49.53
2022-10-18T10:02:45.630Z,48.78
2022-10-18T10:05:15.512Z,47.50
2022-10-18T10:07:44.621Z,45.50
2022-10-18T10:10:22.030Z,45.72
2022-10-18T10:13:01.994Z,45.58
2022-10-18T10:15:33.125Z,42.60
2022-10-18T10:18:26.018Z,43.90
2022-10-18T10:20:55.748Z,43.42
2022-10-18T10:23:29.346Z,42.85
2022-10-18T10:25:59.487Z,39.90
2022-10-18T10:28:30.179Z,42.37
2022-10-18T10:31:25.479Z,37.42
2022-10-18T10:34:14.564Z,40.97
2022-10-18T10:36:53.406Z,36.10
2022-10-18T10:39:22.615Z,38.63
2022-10-18T10:41:51.872Z,38.95
2022-10-18T10:44:21.212Z,36.42
2022-10-18T10:46:50.148Z,34.95
2022-10-18T10:49:42.482Z,32.05
2022-10-18T10:52:28.335Z,32.65
2022-10-18T10:55:33.712Z,34.05
2022-10-18T10:57:47.176Z,34.47
2022-10-18T11:00:40.737Z,35.33
2022-10-18T11:03:29.095Z,32.28
2022-10-18T11:05:57.781Z,34.90
2022-10-18T11:08:31.393Z,29.27
2022-10-18T11:11:22.258Z,32.35
2022-10-18T11:14:07.396Z,31.58
2022-10-18T11:17:17.608Z,30.80
2022-10-18T11:19:52.779Z,31.60
2022-10-18T11:22:21.966Z,31.13
2022-10-18T11:24:48.502Z,30.08
2022-10-18T11:27:29.693Z,31.63
2022-10-18T11:30:02.097Z,31.30
2022-10-18T11:32:59.493Z,28.55
2022-10-18T11:35:41.057Z,29.90
2022-10-18T11:38:31.266Z,28.20
2022-10-18T11:41:04.233Z,26.60
2022-10-18T11:44:02.712Z,26.77
2022-10-18T11:47:11.320Z,28.77
2022-10-18T11:50:07.672Z,26.55
2022-10-18T11:53:07.538Z,24.90
2022-10-18T11:55:49.046Z,26.00
2022-10-18T11:58:37.759Z,26.38
2022-10-18T12:01:24.683Z,27.00
2022-10-18T12:04:02.021Z,29.48
2022-10-18T12:06:34.906Z,28.63
2022-10-18T12:09:08.083Z,28.67
2022-10-18T12:11:45.312Z,26.42
2022-10-18T12:14:27.113Z,29.35
2022-10-18T12:17:20.316Z,25.00
2022-10-18T12:19:45.689Z,24.83
2022-10-18T12:22:23.068Z,30.20
2022-10-18T12:24:49.945Z,28.40
2022-10-18T12:27:17.732Z,28.05
2022-10-18T12:30:05.553Z,28.38
2022-10-18T12:32:36.660Z,26.77
2022-10-18T12:35:13.554Z,27.60
2022-10-18T12:37:51.476Z,29.38
2022-10-18T12:40:23.437Z,26.80
2022-10-18T12:42:52.480Z,29.38
2022-10-18T12:45:33.031Z,30.40
2022-10-18T12:48:07.127Z,26.98
2022-10-18T12:50:34.900Z,27.83
2022-10-18T12:53:07.746Z,28.80
2022-10-18T12:58:15.807Z,27.38
2022-10-18T13:00:42.222Z,31.80
2022-10-18T13:03:20.609Z,28.15
2022-10-18T13:05:52.790Z,28.25
2022-10-18T13:08:30.220Z,27.40
2022-10-18T13:11:08.968Z,29.60
2022-10-18T13:16:54.467Z,26.08
2022-10-18T13:19:35.098Z,26.80
2022-10-18T13:22:22.947Z,27.95
2022-10-18T13:25:04.690Z,31.73
2022-10-18T13:28:00.962Z,27.08
2022-10-18T13:30:40.946Z,28.00
2022-10-18T13:33:22.585Z,24.50
2022-10-18T13:36:01.271Z,26.55
2022-10-18T13:38:36.662Z,25.55
2022-10-18T13:41:05.973Z,28.15
2022-10-18T13:43:52.609Z,26.88
2022-10-18T13:46:20.700Z,28.70
2022-10-18T13:48:52.781Z,26.05
2022-10-18T13:51:44.385Z,23.05
2022-10-18T13:54:18.990Z,30.50
2022-10-18T13:57:03.790Z,25.38
2022-10-18T13:59:53.916Z,26.83
2022-10-18T14:02:55.053Z,26.90
2022-10-18T14:05:43.095Z,25.92
2022-10-18T14:08:16.242Z,25.70
2022-10-18T14:11:17.922Z,25.50
2022-10-18T14:13:52.239Z,26.30
2022-10-18T14:16:34.982Z,26.85
2022-10-18T14:19:13.816Z,25.15
2022-10-18T14:21:49.182Z,24.50
2022-10-18T14:24:21.440Z,22.77
2022-10-18T14:26:48.038Z,25.33
2022-10-18T14:29:20.265Z,24.27
2022-10-18T14:31:54.528Z,23.38
2022-10-18T14:34:22.138Z,23.85
2022-10-18T14:36:49.642Z,24.45
2022-10-18T14:39:27.434Z,27.38
2022-10-18T14:41:57.278Z,26.75
2022-10-18T14:44:32.024Z,26.10
2022-10-18T14:47:01.599Z,22.00
2022-10-18T14:49:28.681Z,23.63
2022-10-18T14:51:58.420Z,21.33
2022-10-18T14:54:36.268Z,23.92
2022-10-18T14:57:04.634Z,23.77
2022-10-18T14:59:38.380Z,23.13
2022-10-18T15:02:14.564Z,20.52
2022-10-18T15:04:44.149Z,23.08
2022-10-18T15:07:17.595Z,24.50
2022-10-18T15:09:45.313Z,22.08
2022-10-18T15:12:14.949Z,23.33
2022-10-18T15:14:42.550Z,24.33
2022-10-18T15:17:30.897Z,23.42
2022-10-18T15:20:03.503Z,23.70
2022-10-18T15:22:33.282Z,22.55
2022-10-18T15:25:05.887Z,22.17
2022-10-18T15:27:36.293Z,20.88
2022-10-18T15:30:28.950Z,22.42
2022-10-18T15:33:03.125Z,23.38
2022-10-18T15:35:34.743Z,23.33
2022-10-18T15:38:22.922Z,22.02
2022-10-18T15:40:49.505Z,22.67
2022-10-18T15:43:27.993Z,23.08
2022-10-18T15:46:00.093Z,21.20
2022-10-18T15:48:39.892Z,20.20
2022-10-18T15:51:28.626Z,20.48
2022-10-18T15:53:59.051Z,20.90
2022-10-18T15:56:38.274Z,21.90
2022-10-18T15:59:20.683Z,21.23
2022-10-18T16:01:54.184Z,20.05
2022-10-18T16:04:23.511Z,22.23
2022-10-18T16:06:50.395Z,21.40
2022-10-18T16:09:22.506Z,22.23
2022-10-18T16:11:56.652Z,22.00
2022-10-18T16:14:27.286Z,21.15
2022-10-18T16:17:02.009Z,21.30
2022-10-18T16:19:43.520Z,22.08
2022-10-18T16:24:44.695Z,22.38
2022-10-18T16:27:14.585Z,22.38
2022-10-18T16:29:41.623Z,18.52
2022-10-18T16:32:08.037Z,22.65
2022-10-18T16:34:34.481Z,18.83
2022-10-18T16:37:01.210Z,23.63
2022-10-18T16:39:29.176Z,20.10
2022-10-18T16:42:02.103Z,21.05
2022-10-18T16:44:28.562Z,19.92
2022-10-18T16:46:58.276Z,19.15
2022-10-18T16:49:26.311Z,27.00
2022-10-18T16:51:54.304Z,24.13
2022-10-18T16:54:21.085Z,26.67
2022-10-18T16:56:47.761Z,22.85
2022-10-18T16:59:32.450Z,23.55
2022-10-18T17:02:01.473Z,26.40
2022-10-18T17:04:29.105Z,25.77
2022-10-18T17:06:57.597Z,24.77
2022-10-18T17:09:24.038Z,21.40
2022-10-18T17:11:50.446Z,27.80
2022-10-18T17:14:16.894Z,26.73
2022-10-18T17:16:45.434Z,25.80
2022-10-18T17:19:14.830Z,25.50
2022-10-18T17:21:41.268Z,27.38
2022-10-18T17:24:07.700Z,23.85
2022-10-18T17:26:34.634Z,27.90
2022-10-18T17:29:04.647Z,26.35
2022-10-18T17:31:32.758Z,27.07
2022-10-18T17:34:01.635Z,28.30
2022-10-18T17:36:29.492Z,26.38
2022-10-18T17:38:56.312Z,24.92
2022-10-18T17:41:22.943Z,24.95
2022-10-18T17:43:49.837Z,26.67
2022-10-18T17:46:17.706Z,25.70
2022-10-18T17:48:44.203Z,28.33
2022-10-18T17:51:12.449Z,24.88
2022-10-18T17:53:39.107Z,26.02
2022-10-18T17:56:07.293Z,27.95
2022-10-18T17:58:34.214Z,30.02
2022-10-18T18:01:18.365Z,30.70
2022-10-18T18:03:45.087Z,31.83
2022-10-18T18:06:19.579Z,30.73
2022-10-18T18:08:47.693Z,30.00
2022-10-18T18:11:14.461Z,28.77
2022-10-18T18:13:41.259Z,30.27
2022-10-18T18:16:16.195Z,29.23
2022-10-18T18:18:42.955Z,27.33
2022-10-18T18:21:09.414Z,28.55
2022-10-18T18:23:35.870Z,28.27
2022-10-18T18:26:02.496Z,26.77
2022-10-18T18:28:29.037Z,27.38
2022-10-18T18:30:55.648Z,28.38
2022-10-18T18:33:22.123Z,29.58
2022-10-18T18:35:58.574Z,28.88
2022-10-18T18:38:25.807Z,31.70
2022-10-18T18:41:08.890Z,28.60
2022-10-18T18:43:36.288Z,29.02
2022-10-18T18:46:03.135Z,29.05
2022-10-18T18:48:32.176Z,28.83
2022-10-18T18:50:58.653Z,29.38
2022-10-18T18:53:28.534Z,28.85
2022-10-18T18:56:01.624Z,29.73
2022-10-18T18:58:28.020Z,30.88
2022-10-18T19:00:54.422Z,27.25
2022-10-18T19:03:20.833Z,26.35
2022-10-18T19:05:47.244Z,30.98
2022-10-18T19:08:13.650Z,30.33
2022-10-18T19:10:40.118Z,29.90
2022-10-18T19:13:06.534Z,32.08
2022-10-18T19:15:33.729Z,31.88
2022-10-18T19:18:00.140Z,32.33
2022-10-18T19:20:26.585Z,31.65
2022-10-18T19:22:53.524Z,31.52
2022-10-18T19:25:22.166Z,31.95
2022-10-18T19:27:51.165Z,29.60
2022-10-18T19:30:19.700Z,29.75
2022-10-18T19:32:46.108Z,31.30
2022-10-18T19:35:12.519Z,30.73
2022-10-18T19:37:38.964Z,29.38
2022-10-18T19:40:06.069Z,31.48
2022-10-18T19:42:32.899Z,31.27
2022-10-18T19:44:59.591Z,29.88
2022-10-18T19:47:26.012Z,27.08
2022-10-18T19:49:53.721Z,33.17
2022-10-18T19:52:20.160Z,28.52
2022-10-18T19:54:48.861Z,31.17
2022-10-18T19:57:15.419Z,28.80
2022-10-18T20:02:15.000Z,29.27
2022-10-18T20:04:41.619Z,30.77
2022-10-18T20:07:08.134Z,30.52
2022-10-18T20:09:34.649Z,30.02
2022-10-18T20:12:01.171Z,29.90
2022-10-18T20:14:27.608Z,29.30
2022-10-18T20:16:54.003Z,31.02
2022-10-18T20:19:20.457Z,33.53
2022-10-18T20:21:46.885Z,35.00
2022-10-18T20:24:13.399Z,60.42
2022-10-18T20:26:39.986Z,34.70
2022-10-18T20:29:07.661Z,33.03
2022-10-18T20:31:37.101Z,29.52
2022-10-18T20:34:10.619Z,28.02
2022-10-18T20:36:37.689Z,31.52
2022-10-18T20:39:04.924Z,31.08
2022-10-18T20:41:34.194Z,32.35
2022-10-18T20:44:14.300Z,32.03
2022-10-18T20:46:40.944Z,27.88
2022-10-18T20:49:10.316Z,32.85
2022-10-18T20:51:36.750Z,28.60
2022-10-18T20:56:34.205Z,30.80
2022-10-18T20:59:01.017Z,28.77
2022-10-18T21:01:30.334Z,30.00
2022-10-18T21:03:58.804Z,32.95
2022-10-18T21:06:44.649Z,33.33
2022-10-18T21:09:14.397Z,30.67
2022-10-18T21:11:44.637Z,30.52
2022-10-18T21:14:13.880Z,31.17
2022-10-18T21:16:41.026Z,31.40
2022-10-18T21:19:17.458Z,33.58
2022-10-18T21:21:46.336Z,30.92
2022-10-18T21:24:14.118Z,33.83
2022-10-18T21:26:40.639Z,31.92
2022-10-18T21:29:07.551Z,34.22
2022-10-18T21:31:36.255Z,36.50
2022-10-18T21:34:09.876Z,36.00
2022-10-18T21:36:37.661Z,36.25
2022-10-18T21:39:05.921Z,34.28
2022-10-18T21:41:33.174Z,39.22
2022-10-18T21:44:04.462Z,32.08
2022-10-18T21:46:33.387Z,39.28
2022-10-18T21:48:59.802Z,35.95
2022-10-18T21:51:27.878Z,39.17
2022-10-18T21:53:56.393Z,31.83
2022-10-18T21:56:36.043Z,31.23
2022-10-18T21:59:03.602Z,34.20
2022-10-18T22:01:37.722Z,31.73
2022-10-18T22:04:07.316Z,33.85
2022-10-18T22:09:08.321Z,31.88
2022-10-18T22:11:38.946Z,36.03
2022-10-18T22:14:05.453Z,34.55
2022-10-18T22:16:31.911Z,33.58
2022-10-18T22:19:00.608Z,32.22
2022-10-18T22:21:28.234Z,33.60
2022-10-18T22:23:59.563Z,32.88
2022-10-18T22:26:29.179Z,34.22
2022-10-18T22:29:05.914Z,33.95
2022-10-18T22:31:35.111Z,32.40
2022-10-18T22:34:04.651Z,33.72
2022-10-18T22:36:32.121Z,33.50
2022-10-18T22:38:58.600Z,32.47
2022-10-18T22:41:25.043Z,30.92
2022-10-18T22:43:52.634Z,30.23
2022-10-18T22:46:19.151Z,31.67
2022-10-18T22:48:46.296Z,32.38
2022-10-18T22:51:13.044Z,32.53
2022-10-18T22:53:40.741Z,30.50
2022-10-18T22:56:11.471Z,31.25
2022-10-18T22:58:37.884Z,34.10
2022-10-18T23:01:07.330Z,33.47
2022-10-18T23:03:34.487Z,33.92
2022-10-18T23:06:01.520Z,36.22
2022-10-18T23:08:28.490Z,33.00
2022-10-18T23:10:58.033Z,33.53
2022-10-18T23:13:26.117Z,35.03
2022-10-18T23:15:53.234Z,31.60
2022-10-18T23:18:19.744Z,30.30
2022-10-18T23:20:46.188Z,31.63
2022-10-18T23:23:13.092Z,34.97
2022-10-18T23:25:40.022Z,32.50
2022-10-18T23:28:06.477Z,35.05
2022-10-18T23:30:33.737Z,33.67
2022-10-18T23:33:00.162Z,33.15
2022-10-18T23:35:26.562Z,32.22
2022-10-18T23:37:52.947Z,33.78
2022-10-18T23:40:19.455Z,32.80
2022-10-18T23:42:45.866Z,32.35
2022-10-18T23:45:12.286Z,33.58
2022-10-18T23:47:38.732Z,32.90
2022-10-18T23:50:05.737Z,32.78
2022-10-18T23:52:32.149Z,33.08
2022-10-18T23:54:58.617Z,31.10
2022-10-18T23:57:25.018Z,34.15
2022-10-18T23:59:51.429Z,34.63
